Hauptseite
METAR-TAF:

METAR-TAF

Flughäfen :

Militärflugplatz Deelen

Arnheim, Niederlande

Breite: 52-04N, Länge: 005-53E, Höhe: 48 m

Beobachtung

Neuester Wetterbericht von vor 25 Minuten, um 19:25 UTC
Wind 3 kt aus Südost, variierte zwischen Ost und Süd/Südost
Temperatur 21°C
Luftfeuchtigkeit 56%
Luftdruck 1015 hPa
Sichtweite 10 km oder mehr
Geschlossene Wolkendecke in der Höhe von 25000 ft

METAR: EHDL 051925Z AUTO 14003KT 090V160 9999 OVC250 21/12 Q1015 BLU

Zeit: 21:50 (19:50 UTC)


TAF: fehlend

Wetterbeobachtungen und Prognosen von mehr als 4000 Flughäfen (METAR und TAF Bericht).

Die verfügbaren Stationen werden durch gelbe und rote Markierungen auf der Karte dargestellt.

Führen Sie die Maus auf sie, um den Namen der Station zu sehen.

Darauf klicken, um die Beobachtung von Wetterbeobachtungen und Prognosen zu sehen.

Um die Karte zu ändern : klicken Sie auf den grünen Tasten mit einem schwarzen Kreuz Zum Vergrößern, auf den grünen Button mit einem Gedankenstrich zu verkleinern, oder auf die grünen Pfeile für benachbarte Karten.


METAR-TAF: